Sign up for free  Features

Wettkampf: UTDS 2020 Legends Edition

Overview

162.17
km
Distance
1d 09:38:53
Time
1d 09:38:53
Elapsed time
12:27
/km
Pace
135
W
avg. Power
10,379
kcal
Energy
9630
 TRIMP
4,516
m
Elevation

Laps

Distance Time Pace Power elev.
0.99km 7:10 7:16/km 164W +0/-31
2.00km 13:52 6:40/km 235W +27/-28
2.99km 21:32 7:41/km 232W +33/-12
4.00km 27:40 6:07/km 200W +13/-6
4.99km 33:24 5:47/km 181W +0/-32
6.00km 38:59 5:32/km 233W +0/-26
6.99km 48:31 9:37/km 234W +49/-10
8.00km 54:08 5:35/km 185W +9/-43
8.99km 1:02:31 8:27/km 304W +44/-5
10.00km 1:09:19 6:44/km 232W +13/-43
11.00km 1:19:01 9:41/km 203W +0/-69
11.99km 1:28:32 9:40/km 250W +83/-11
13.00km 1:40:31 11:59/km 231W +38/-78
13.98km 1:50:02 9:42/km 832W +67/-8
14.98km 1:57:25 7:24/km 246W +12/-13
16.00km 2:03:16 5:46/km 205W +2/-87
17.00km 2:10:27 7:12/km 196W +24/-23
18.00km 2:23:35 13:10/km 86W +51/-9
19.00km 2:31:39 8:04/km 221W +37/-4
19.99km 2:39:47 8:14/km 265W +16/-26
21.00km 2:46:18 6:27/km 164W +0/-68
22.00km 2:54:37 8:20/km 107W +33/-50
23.00km 3:01:24 6:45/km 180W +15/-5
24.00km 3:11:05 9:41/km 248W +48/-0
25.00km 3:17:13 6:10/km 198W +0/-29
26.00km 3:44:23 27:25/km 183W +0/-57
27.00km 3:52:11 7:48/km 193W +29/-23
28.00km 4:00:52 8:40/km 239W +26/-14
29.00km 4:09:18 8:26/km 284W +46/-47
29.99km 4:15:11 5:56/km 129W +0/-76
31.00km 4:44:55 29:43/km 84W +5/-0
31.98km 4:51:04 6:13/km 170W +4/-0
32.99km 4:59:01 7:56/km 275W +39/-4
33.98km 5:09:00 10:06/km 264W +77/-10
35.00km 5:16:25 7:16/km 237W +12/-4
36.00km 5:23:27 7:04/km 198W +18/-25
37.00km 5:30:46 7:18/km 291W +17/-19
37.98km 5:40:17 9:39/km 199W +67/-5
38.99km 5:48:14 7:57/km 202W +23/-13
39.99km 5:54:55 6:40/km 263W +14/-0
40.99km 6:01:16 6:20/km 246W +4/-21
41.99km 6:10:38 9:23/km 215W +31/-0
42.98km 6:18:18 7:43/km 222W +16/-6
43.99km 6:26:04 7:47/km 184W +0/-33
45.00km 6:33:37 7:29/km 157W +0/-98
46.00km 7:03:06 29:31/km 120W +0/-95
47.00km 7:15:39 12:35/km 88W +61/-0
48.00km 7:28:38 12:57/km 231W +112/-0
49.00km 7:39:23 10:44/km 217W +70/-0
50.00km 7:48:39 9:16/km 263W +12/-12
51.00km 8:01:54 13:17/km 92W +0/-88
52.00km 8:13:30 11:35/km 17W +7/-49
52.99km 8:34:52 21:32/km 188W +106/-0
53.99km 8:44:24 9:32/km 230W +29/-0
55.00km 9:00:43 16:21/km 209W +5/-8
55.99km 9:08:01 7:22/km 99W +4/-88
57.00km 9:19:42 11:39/km 209W +103/-0
58.00km 9:31:10 11:27/km 193W +67/-4
59.00km 9:38:19 7:08/km 274W +8/-34
60.00km 9:46:42 8:24/km 104W +0/-94
61.00km 9:53:02 6:21/km 150W +0/-104
62.00km 10:10:08 17:11/km 127W +0/-57
63.00km 10:31:33 21:25/km 102W +44/-13
64.00km 10:40:56 9:24/km 227W +69/-17
65.00km 10:56:23 15:28/km 254W +102/-0
66.00km 11:05:40 9:17/km 288W +26/-44
66.99km 11:15:30 9:52/km 82W +30/-47
67.99km 11:29:32 14:10/km 261W +80/-22
69.00km 11:57:11 20:13/km 4W +27/-67
70.00km 12:06:48 9:36/km 240W +48/-0
70.99km 12:13:32 6:45/km 212W +0/-27
72.00km 12:19:55 6:20/km 179W +0/-62
73.00km 12:27:37 7:43/km 121W +23/-82
74.00km 12:38:11 10:35/km 188W +75/-2
75.00km 12:52:03 13:51/km 100W +0/-57
76.00km 13:00:14 8:11/km 117W +1/-65
77.00km 13:18:32 18:32/km 200W +48/-19
77.99km 13:29:03 10:32/km 125W +65/-17
79.00km 13:50:46 21:43/km 218W +56/-0
80.00km 14:01:14 10:25/km 54W +32/-29
80.99km 14:10:45 9:35/km 91W +4/-87
82.00km 14:19:09 8:21/km 112W +12/-25
83.00km 14:28:09 9:01/km 132W +9/-17
84.00km 14:39:22 11:13/km 155W +20/-9
85.00km 14:51:10 11:49/km 183W +67/-0
86.00km 15:03:48 12:35/km 199W +41/-33
87.00km 15:16:41 12:55/km 63W +24/-58
88.00km 15:39:13 22:35/km 228W +219/-1
89.00km 15:51:38 12:24/km 66W +5/-62
90.00km 16:29:21 37:52/km 69W +0/-1
91.00km 16:45:53 16:31/km 56W +4/-43
92.00km 16:57:07 11:12/km 104W +0/-21
93.00km 17:08:52 11:50/km 92W +13/-76
94.00km 17:19:48 10:55/km 54W +0/-68
95.00km 17:45:46 26:02/km 64W +111/-0
96.00km 18:03:36 17:48/km 69W +141/-0
96.99km 18:13:28 9:57/km 194W +0/-28
97.99km 18:30:49 17:28/km 90W +0/-77
99.00km 18:39:52 8:57/km 78W +0/-82
100.00km 18:49:17 9:26/km 63W +1/-38
101.00km 19:12:24 23:14/km 142W +104/-8
102.00km 19:22:28 10:03/km 84W +4/-74
102.99km 19:34:42 12:20/km 63W +32/-30
104.00km 19:51:15 16:33/km 118W +28/-13
104.99km 20:01:44 10:32/km 126W +4/-22
106.00km 20:11:23 9:37/km 140W +2/-0
106.99km 20:23:51 12:35/km 191W +1/-0
108.00km 20:36:19 12:25/km 159W +35/-0
109.00km 21:13:50 37:37/km 197W +88/-0
110.00km 21:25:10 11:18/km 149W +38/-22
111.00km 21:35:24 10:16/km 127W +4/-42
111.99km 21:47:23 12:00/km 90W +43/-54
112.99km 21:55:37 8:13/km 161W +0/-50
114.00km 22:04:53 9:14/km 148W +4/-31
114.99km 22:32:20 27:39/km 157W +7/-0
116.00km 22:43:17 10:55/km 188W +26/-18
116.99km 22:56:39 13:28/km 35W +67/-11
118.00km 23:05:30 8:47/km 199W +37/-0
119.00km 23:15:02 9:29/km 187W +30/-0
120.00km 23:21:48 6:49/km 161W +0/-16
121.00km 23:29:43 7:55/km 163W +0/-53
121.99km 23:38:37 8:56/km 140W +0/-38
123.00km 1d 00:47:38 69:14/km 155W +2/-8
124.00km 1d 01:00:40 13:02/km 91W +92/-0
125.00km 1d 01:11:57 11:16/km 134W +55/-54
125.99km 1d 01:22:14 10:23/km 261W +49/-10
126.99km 1d 01:30:10 7:56/km 194W +9/-37
128.00km 1d 01:39:34 9:20/km 128W +13/-21
129.00km 1d 01:55:41 16:08/km 203W +78/-21
130.00km 1d 02:11:29 15:49/km 149W +24/-38
131.00km 1d 02:25:35 14:06/km 185W +51/-32
132.00km 1d 02:37:30 11:57/km 158W +27/-58
132.99km 1d 02:59:21 22:00/km 214W +51/-24
134.00km 1d 03:11:14 11:56/km 193W +45/-31
135.00km 1d 03:36:26 25:16/km 59W +0/-20
135.99km 1d 03:49:36 13:14/km 109W +12/-67
137.00km 1d 03:59:01 9:24/km 172W +21/-8
138.00km 1d 04:10:23 11:25/km 219W +28/-0
138.99km 1d 04:22:03 11:45/km 193W +28/-0
140.00km 1d 04:35:06 12:57/km 184W +48/-0
141.00km 1d 04:46:45 11:38/km 191W +52/-9
142.00km 1d 04:58:59 12:15/km 132W +53/-0
143.00km 1d 05:11:44 12:47/km 234W +25/-1
144.00km 1d 05:22:43 10:58/km 189W +27/-0
144.99km 1d 06:25:23 63:21/km 128W +4/-4
146.00km 1d 06:36:07 10:39/km 126W +0/-13
147.00km 1d 06:44:08 8:00/km 142W +0/-31
148.00km 1d 06:59:57 15:49/km 84W +16/-24
148.98km 1d 07:11:04 11:15/km 49W +3/-16
150.00km 1d 07:22:18 11:07/km 167W +5/-4
151.00km 1d 07:30:45 8:27/km 135W +0/-20
152.00km 1d 07:44:28 13:44/km 151W +0/-8
153.00km 1d 07:56:18 11:51/km 114W +0/-10
154.00km 1d 08:05:10 8:52/km 148W +0/-68
155.00km 1d 08:16:54 11:46/km 70W +0/-47
156.00km 1d 08:29:51 12:58/km 53W +4/-34
156.99km 1d 08:40:28 10:43/km 134W +0/-39
157.99km 1d 08:52:51 12:22/km 47W +7/-20
159.00km 1d 09:04:12 11:17/km 150W +28/-21
160.00km 1d 09:14:17 10:03/km 176W +20/-34
161.00km 1d 09:28:12 14:00/km 93W +36/-34
161.99km 1d 09:36:46 8:35/km 150W +8/-2
162.17km 1d 09:38:54 12:55/km 146W +0/-3

Pace data

12:27
/km
avg. Pace
4.8
km/h
avg. Speed
12:22
/km
 avg. GAP

Power data

135
W
avg. Power
1.79
W/kg
Specific power
227
W
 xPower
1.68
 Variability Index
0.75
 Running Effectiveness
0.60
 Efficiency Index

Course and elevation data

162.17
km
Distance
+4,516/-4,462
m
Ascent/Descent
8.2
Climb Score
72
%
Percentage hilly
2.78
%
avg. Gradient
Jalhay
Course

Running Dynamics

134
spm
Cadence (Running)
0.60
m
Stride length
270530
Number of steps

Miscellaneous

04.07.2020
Date
07:58
Time of day
20
 RPE
3
Subjective feeling
cloudy
Weather condition
14
°C
Temperature
13
km/h
Wind speed
SW / 206
°
Wind direction
84
%
Humidity
1017
hpa
Pressure
14
°C
Wind chill factor
14
°C
Heat index
#Schinder-Trail Corona SkyRun
Tags
Hoka Torrent
Laufschuhe
Garmin Fenix 6X Pro
Device
Maarten, Olav
Training partner

Race Result UTDS special

  • Official distance: 162.2 km
  • Official time: 1d 09:38:53
  • Effective VO2max: 13.39
  • Age grade: 33.40 %

Source of weather data: Powered by Dark Sky

Advertise

Glossary  ·  Help and support  ·  Forum  ·  Blog  ·  Statement of Privacy  ·  Terms of use  ·  Legal notice © 2020 RUNALYZE Team



Join RUNALYZE and analyse your activities Register with mail or sign in with Facebook Google